sensor_id;sensor_type;location;lat;lon;timestamp;temperature;humidity
30150;DHT22;16962;48.646;9.026;2022-11-15T00:00:56;5.60;99.90
30150;DHT22;16962;48.646;9.026;2022-11-15T00:03:44;5.80;99.90
30150;DHT22;16962;48.646;9.026;2022-11-15T00:06:32;5.80;99.90
30150;DHT22;16962;48.646;9.026;2022-11-15T00:09:19;5.80;99.90
30150;DHT22;16962;48.646;9.026;2022-11-15T00:12:10;5.80;99.90
30150;DHT22;16962;48.646;9.026;2022-11-15T00:14:57;5.90;99.90
30150;DHT22;16962;48.646;9.026;2022-11-15T00:17:50;5.80;99.90
30150;DHT22;16962;48.646;9.026;2022-11-15T00:20:39;5.60;99.90
30150;DHT22;16962;48.646;9.026;2022-11-15T00:23:26;5.40;99.90
30150;DHT22;16962;48.646;9.026;2022-11-15T00:26:14;5.20;99.90
30150;DHT22;16962;48.646;9.026;2022-11-15T00:29:02;5.10;99.90
30150;DHT22;16962;48.646;9.026;2022-11-15T00:31:54;5.00;99.90
30150;DHT22;16962;48.646;9.026;2022-11-15T00:34:41;4.90;99.90
30150;DHT22;16962;48.646;9.026;2022-11-15T00:37:29;4.80;99.90
30150;DHT22;16962;48.646;9.026;2022-11-15T00:40:16;4.70;99.90
30150;DHT22;16962;48.646;9.026;2022-11-15T00:43:06;4.60;99.90
30150;DHT22;16962;48.646;9.026;2022-11-15T00:45:53;4.50;99.90
30150;DHT22;16962;48.646;9.026;2022-11-15T00:48:40;4.50;99.90
30150;DHT22;16962;48.646;9.026;2022-11-15T00:51:27;4.50;99.90
30150;DHT22;16962;48.646;9.026;2022-11-15T00:54:14;4.50;99.90
30150;DHT22;16962;48.646;9.026;2022-11-15T00:57:05;4.40;99.90
30150;DHT22;16962;48.646;9.026;2022-11-15T00:59:52;4.40;99.90
30150;DHT22;16962;48.646;9.026;2022-11-15T01:02:42;4.40;99.90
30150;DHT22;16962;48.646;9.026;2022-11-15T01:05:32;4.40;99.90
30150;DHT22;16962;48.646;9.026;2022-11-15T01:08:19;4.40;99.90
30150;DHT22;16962;48.646;9.026;2022-11-15T01:11:09;4.50;99.90
30150;DHT22;16962;48.646;9.026;2022-11-15T01:13:59;4.70;99.90
30150;DHT22;16962;48.646;9.026;2022-11-15T01:16:46;4.90;99.90
30150;DHT22;16962;48.646;9.026;2022-11-15T01:19:33;4.90;99.90
30150;DHT22;16962;48.646;9.026;2022-11-15T01:22:20;4.90;99.90
30150;DHT22;16962;48.646;9.026;2022-11-15T01:25:07;4.90;99.90
30150;DHT22;16962;48.646;9.026;2022-11-15T01:27:54;5.00;99.90
30150;DHT22;16962;48.646;9.026;2022-11-15T01:30:41;5.10;99.90
30150;DHT22;16962;48.646;9.026;2022-11-15T01:33:30;5.20;99.90
30150;DHT22;16962;48.646;9.026;2022-11-15T01:36:20;5.40;99.90
30150;DHT22;16962;48.646;9.026;2022-11-15T01:39:10;5.50;99.90
30150;DHT22;16962;48.646;9.026;2022-11-15T01:42:00;5.50;99.90
30150;DHT22;16962;48.646;9.026;2022-11-15T01:44:51;5.50;99.90
30150;DHT22;16962;48.646;9.026;2022-11-15T01:47:45;5.50;99.90
30150;DHT22;16962;48.646;9.026;2022-11-15T01:50:33;5.40;99.90
30150;DHT22;16962;48.646;9.026;2022-11-15T01:53:23;5.30;99.90
30150;DHT22;16962;48.646;9.026;2022-11-15T01:56:18;5.20;99.90
30150;DHT22;16962;48.646;9.026;2022-11-15T01:59:10;5.20;99.90
30150;DHT22;16962;48.646;9.026;2022-11-15T02:02:00;5.20;99.90
30150;DHT22;16962;48.646;9.026;2022-11-15T02:04:47;5.20;99.90
30150;DHT22;16962;48.646;9.026;2022-11-15T02:07:35;5.10;99.90
30150;DHT22;16962;48.646;9.026;2022-11-15T02:10:24;5.20;99.90
30150;DHT22;16962;48.646;9.026;2022-11-15T02:13:11;5.10;99.90
30150;DHT22;16962;48.646;9.026;2022-11-15T02:16:19;5.10;99.90
30150;DHT22;16962;48.646;9.026;2022-11-15T02:22:42;5.20;99.90
30150;DHT22;16962;48.646;9.026;2022-11-15T02:29:06;5.40;99.90
30150;DHT22;16962;48.646;9.026;2022-11-15T02:32:13;5.50;99.90
30150;DHT22;16962;48.646;9.026;2022-11-15T02:35:12;5.50;99.90
30150;DHT22;16962;48.646;9.026;2022-11-15T02:41:20;5.50;99.90
30150;DHT22;16962;48.646;9.026;2022-11-15T02:44:17;5.50;99.90
30150;DHT22;16962;48.646;9.026;2022-11-15T02:47:12;5.50;99.90
30150;DHT22;16962;48.646;9.026;2022-11-15T02:50:07;5.50;99.90
30150;DHT22;16962;48.646;9.026;2022-11-15T02:52:56;5.50;99.90
30150;DHT22;16962;48.646;9.026;2022-11-15T02:55:50;5.50;99.90
30150;DHT22;16962;48.646;9.026;2022-11-15T03:07:43;5.80;99.90
30150;DHT22;16962;48.646;9.026;2022-11-15T03:14:00;5.70;99.90
30150;DHT22;16962;48.646;9.026;2022-11-15T03:19:50;5.70;99.90
30150;DHT22;16962;48.646;9.026;2022-11-15T03:22:43;5.70;99.90
30150;DHT22;16962;48.646;9.026;2022-11-15T03:25:32;5.80;99.90
30150;DHT22;16962;48.646;9.026;2022-11-15T03:28:24;5.80;99.90
30150;DHT22;16962;48.646;9.026;2022-11-15T03:31:14;5.80;99.90
30150;DHT22;16962;48.646;9.026;2022-11-15T03:34:31;5.80;99.90
30150;DHT22;16962;48.646;9.026;2022-11-15T03:37:24;5.70;99.90
30150;DHT22;16962;48.646;9.026;2022-11-15T03:40:15;5.70;99.90
30150;DHT22;16962;48.646;9.026;2022-11-15T03:43:28;5.70;99.90
30150;DHT22;16962;48.646;9.026;2022-11-15T03:46:26;5.60;99.90
30150;DHT22;16962;48.646;9.026;2022-11-15T03:49:32;5.70;99.90
30150;DHT22;16962;48.646;9.026;2022-11-15T03:52:21;5.70;99.90
30150;DHT22;16962;48.646;9.026;2022-11-15T03:55:15;5.70;99.90
30150;DHT22;16962;48.646;9.026;2022-11-15T03:58:03;5.80;99.90
30150;DHT22;16962;48.646;9.026;2022-11-15T04:00:50;5.70;99.90
30150;DHT22;16962;48.646;9.026;2022-11-15T04:03:37;5.70;99.90
30150;DHT22;16962;48.646;9.026;2022-11-15T04:06:26;5.60;99.90
30150;DHT22;16962;48.646;9.026;2022-11-15T04:09:14;5.60;99.90
30150;DHT22;16962;48.646;9.026;2022-11-15T04:12:01;5.60;99.90
30150;DHT22;16962;48.646;9.026;2022-11-15T04:14:48;5.70;99.90
30150;DHT22;16962;48.646;9.026;2022-11-15T04:17:57;5.70;99.90
30150;DHT22;16962;48.646;9.026;2022-11-15T04:20:44;5.70;99.90
30150;DHT22;16962;48.646;9.026;2022-11-15T04:23:50;5.70;99.90
30150;DHT22;16962;48.646;9.026;2022-11-15T04:26:40;5.70;99.90
30150;DHT22;16962;48.646;9.026;2022-11-15T04:29:27;5.70;99.90
30150;DHT22;16962;48.646;9.026;2022-11-15T04:32:25;5.80;99.90
30150;DHT22;16962;48.646;9.026;2022-11-15T04:35:12;5.80;99.90
30150;DHT22;16962;48.646;9.026;2022-11-15T04:38:03;5.80;99.90
30150;DHT22;16962;48.646;9.026;2022-11-15T04:40:51;5.90;99.90
30150;DHT22;16962;48.646;9.026;2022-11-15T04:43:40;5.90;99.90
30150;DHT22;16962;48.646;9.026;2022-11-15T04:46:27;5.90;99.90
30150;DHT22;16962;48.646;9.026;2022-11-15T04:49:14;5.90;99.90
30150;DHT22;16962;48.646;9.026;2022-11-15T04:52:01;5.90;99.90
30150;DHT22;16962;48.646;9.026;2022-11-15T04:54:50;5.90;99.90
30150;DHT22;16962;48.646;9.026;2022-11-15T04:57:39;5.80;99.90
30150;DHT22;16962;48.646;9.026;2022-11-15T05:00:27;5.70;99.90
30150;DHT22;16962;48.646;9.026;2022-11-15T05:03:15;5.70;99.90
30150;DHT22;16962;48.646;9.026;2022-11-15T05:06:22;5.70;99.90
30150;DHT22;16962;48.646;9.026;2022-11-15T05:09:09;5.60;99.90
30150;DHT22;16962;48.646;9.026;2022-11-15T05:11:57;5.60;99.90
30150;DHT22;16962;48.646;9.026;2022-11-15T05:14:44;5.60;99.90
30150;DHT22;16962;48.646;9.026;2022-11-15T05:17:31;5.70;99.90
30150;DHT22;16962;48.646;9.026;2022-11-15T05:20:21;5.60;99.90
30150;DHT22;16962;48.646;9.026;2022-11-15T05:23:10;5.60;99.90
30150;DHT22;16962;48.646;9.026;2022-11-15T05:26:01;5.60;99.90
30150;DHT22;16962;48.646;9.026;2022-11-15T05:28:56;5.50;99.90
30150;DHT22;16962;48.646;9.026;2022-11-15T05:32:07;5.60;99.90
30150;DHT22;16962;48.646;9.026;2022-11-15T05:34:55;5.60;99.90
30150;DHT22;16962;48.646;9.026;2022-11-15T05:37:45;5.60;99.90
30150;DHT22;16962;48.646;9.026;2022-11-15T05:40:32;5.50;99.90
30150;DHT22;16962;48.646;9.026;2022-11-15T05:43:21;5.50;99.90
30150;DHT22;16962;48.646;9.026;2022-11-15T05:46:09;5.40;99.90
30150;DHT22;16962;48.646;9.026;2022-11-15T05:48:59;5.40;99.90
30150;DHT22;16962;48.646;9.026;2022-11-15T05:51:47;5.30;99.90
30150;DHT22;16962;48.646;9.026;2022-11-15T05:54:35;5.30;99.90
30150;DHT22;16962;48.646;9.026;2022-11-15T05:57:24;5.20;99.90
30150;DHT22;16962;48.646;9.026;2022-11-15T06:00:11;5.10;99.90
30150;DHT22;16962;48.646;9.026;2022-11-15T06:03:01;5.00;99.90
30150;DHT22;16962;48.646;9.026;2022-11-15T06:05:48;5.00;99.90
30150;DHT22;16962;48.646;9.026;2022-11-15T06:08:35;5.00;99.90
30150;DHT22;16962;48.646;9.026;2022-11-15T06:11:25;5.00;99.90
30150;DHT22;16962;48.646;9.026;2022-11-15T06:14:14;5.00;99.90
30150;DHT22;16962;48.646;9.026;2022-11-15T06:17:01;5.00;99.90
30150;DHT22;16962;48.646;9.026;2022-11-15T06:19:56;4.90;99.90
30150;DHT22;16962;48.646;9.026;2022-11-15T06:22:44;4.90;99.90
30150;DHT22;16962;48.646;9.026;2022-11-15T06:25:31;4.90;99.90
30150;DHT22;16962;48.646;9.026;2022-11-15T06:28:18;4.90;99.90
30150;DHT22;16962;48.646;9.026;2022-11-15T06:31:10;4.80;99.90
30150;DHT22;16962;48.646;9.026;2022-11-15T06:34:01;4.80;99.90
30150;DHT22;16962;48.646;9.026;2022-11-15T06:36:51;4.90;99.90
30150;DHT22;16962;48.646;9.026;2022-11-15T06:39:38;5.00;99.90
30150;DHT22;16962;48.646;9.026;2022-11-15T06:42:25;5.00;99.90
30150;DHT22;16962;48.646;9.026;2022-11-15T06:45:13;5.10;99.90
30150;DHT22;16962;48.646;9.026;2022-11-15T06:48:00;5.20;99.90
30150;DHT22;16962;48.646;9.026;2022-11-15T06:50:58;5.30;99.90
30150;DHT22;16962;48.646;9.026;2022-11-15T06:53:45;5.40;99.90
30150;DHT22;16962;48.646;9.026;2022-11-15T06:56:36;5.50;99.90
30150;DHT22;16962;48.646;9.026;2022-11-15T06:59:29;5.60;99.90
30150;DHT22;16962;48.646;9.026;2022-11-15T07:02:17;5.60;99.90
30150;DHT22;16962;48.646;9.026;2022-11-15T07:05:07;5.70;99.90
30150;DHT22;16962;48.646;9.026;2022-11-15T07:07:55;5.80;99.90
30150;DHT22;16962;48.646;9.026;2022-11-15T07:10:42;5.90;99.90
30150;DHT22;16962;48.646;9.026;2022-11-15T07:13:33;6.00;99.90
30150;DHT22;16962;48.646;9.026;2022-11-15T07:16:21;6.20;99.90
30150;DHT22;16962;48.646;9.026;2022-11-15T07:19:11;6.20;99.90
30150;DHT22;16962;48.646;9.026;2022-11-15T07:21:58;6.30;99.90
30150;DHT22;16962;48.646;9.026;2022-11-15T07:24:45;6.30;99.90
30150;DHT22;16962;48.646;9.026;2022-11-15T07:27:33;6.40;99.90
30150;DHT22;16962;48.646;9.026;2022-11-15T07:30:20;6.60;99.90
30150;DHT22;16962;48.646;9.026;2022-11-15T07:33:07;6.90;99.90
30150;DHT22;16962;48.646;9.026;2022-11-15T07:35:59;7.30;99.90
30150;DHT22;16962;48.646;9.026;2022-11-15T07:38:49;7.80;99.90
30150;DHT22;16962;48.646;9.026;2022-11-15T07:41:38;8.60;99.90
30150;DHT22;16962;48.646;9.026;2022-11-15T07:44:28;9.00;99.90
30150;DHT22;16962;48.646;9.026;2022-11-15T07:47:15;9.10;99.90
30150;DHT22;16962;48.646;9.026;2022-11-15T07:50:07;9.10;99.90
30150;DHT22;16962;48.646;9.026;2022-11-15T07:52:56;9.10;99.90
30150;DHT22;16962;48.646;9.026;2022-11-15T07:55:44;9.20;99.90
30150;DHT22;16962;48.646;9.026;2022-11-15T07:58:31;9.30;1.00
30150;DHT22;16962;48.646;9.026;2022-11-15T08:01:20;9.20;19.20
30150;DHT22;16962;48.646;9.026;2022-11-15T08:04:07;9.20;99.90
30150;DHT22;16962;48.646;9.026;2022-11-15T08:06:54;9.30;99.90
30150;DHT22;16962;48.646;9.026;2022-11-15T08:09:43;9.30;99.90
30150;DHT22;16962;48.646;9.026;2022-11-15T08:12:31;9.30;58.20
30150;DHT22;16962;48.646;9.026;2022-11-15T08:15:19;9.30;1.00
30150;DHT22;16962;48.646;9.026;2022-11-15T08:18:10;9.30;99.90
30150;DHT22;16962;48.646;9.026;2022-11-15T08:21:00;9.50;99.90
30150;DHT22;16962;48.646;9.026;2022-11-15T08:23:47;9.70;99.90
30150;DHT22;16962;48.646;9.026;2022-11-15T08:26:37;9.80;99.90
30150;DHT22;16962;48.646;9.026;2022-11-15T08:29:27;10.10;25.20
30150;DHT22;16962;48.646;9.026;2022-11-15T08:32:23;10.40;1.00
30150;DHT22;16962;48.646;9.026;2022-11-15T08:35:11;10.60;99.90
30150;DHT22;16962;48.646;9.026;2022-11-15T08:38:00;10.90;99.90
30150;DHT22;16962;48.646;9.026;2022-11-15T08:40:47;11.20;99.90
30150;DHT22;16962;48.646;9.026;2022-11-15T08:43:35;11.80;37.70
30150;DHT22;16962;48.646;9.026;2022-11-15T08:46:22;12.30;1.00
30150;DHT22;16962;48.646;9.026;2022-11-15T08:49:13;12.40;1.00
30150;DHT22;16962;48.646;9.026;2022-11-15T08:52:00;12.40;1.00
30150;DHT22;16962;48.646;9.026;2022-11-15T08:54:50;12.20;1.00
30150;DHT22;16962;48.646;9.026;2022-11-15T08:57:37;12.20;1.00
30150;DHT22;16962;48.646;9.026;2022-11-15T09:00:27;12.30;1.00
30150;DHT22;16962;48.646;9.026;2022-11-15T09:03:15;12.40;1.00
30150;DHT22;16962;48.646;9.026;2022-11-15T09:06:04;12.60;1.00
30150;DHT22;16962;48.646;9.026;2022-11-15T09:08:51;12.80;1.00
30150;DHT22;16962;48.646;9.026;2022-11-15T09:11:39;13.20;99.90
30150;DHT22;16962;48.646;9.026;2022-11-15T09:14:28;13.10;99.90
30150;DHT22;16962;48.646;9.026;2022-11-15T09:17:18;12.90;99.90
30150;DHT22;16962;48.646;9.026;2022-11-15T09:20:11;13.00;99.90
30150;DHT22;16962;48.646;9.026;2022-11-15T09:23:01;13.60;99.90
30150;DHT22;16962;48.646;9.026;2022-11-15T09:25:52;14.50;99.90
30150;DHT22;16962;48.646;9.026;2022-11-15T09:28:41;15.30;99.90
30150;DHT22;16962;48.646;9.026;2022-11-15T09:31:29;15.60;99.90
30150;DHT22;16962;48.646;9.026;2022-11-15T09:34:16;16.20;99.90
30150;DHT22;16962;48.646;9.026;2022-11-15T09:37:04;16.30;99.90
30150;DHT22;16962;48.646;9.026;2022-11-15T09:39:53;15.80;99.90
30150;DHT22;16962;48.646;9.026;2022-11-15T09:49:03;14.90;99.90
30150;DHT22;16962;48.646;9.026;2022-11-15T09:51:53;14.90;99.90
30150;DHT22;16962;48.646;9.026;2022-11-15T09:54:44;14.70;99.90
30150;DHT22;16962;48.646;9.026;2022-11-15T09:58:09;14.40;99.90
30150;DHT22;16962;48.646;9.026;2022-11-15T10:01:07;14.20;99.90
30150;DHT22;16962;48.646;9.026;2022-11-15T10:03:58;14.30;99.90
30150;DHT22;16962;48.646;9.026;2022-11-15T10:07:02;14.50;99.90
30150;DHT22;16962;48.646;9.026;2022-11-15T10:10:14;14.30;99.90
30150;DHT22;16962;48.646;9.026;2022-11-15T10:13:03;14.40;99.90
30150;DHT22;16962;48.646;9.026;2022-11-15T10:15:57;14.70;99.90
30150;DHT22;16962;48.646;9.026;2022-11-15T10:28:27;14.20;99.90
30150;DHT22;16962;48.646;9.026;2022-11-15T10:31:28;14.00;99.90
30150;DHT22;16962;48.646;9.026;2022-11-15T10:34:19;13.70;99.90
30150;DHT22;16962;48.646;9.026;2022-11-15T10:37:07;13.70;99.90
30150;DHT22;16962;48.646;9.026;2022-11-15T10:40:16;13.70;99.90
30150;DHT22;16962;48.646;9.026;2022-11-15T10:46:20;13.20;99.90
30150;DHT22;16962;48.646;9.026;2022-11-15T10:49:29;13.00;99.90
30150;DHT22;16962;48.646;9.026;2022-11-15T10:52:19;12.80;99.90
30150;DHT22;16962;48.646;9.026;2022-11-15T11:01:16;12.60;99.90
30150;DHT22;16962;48.646;9.026;2022-11-15T11:04:07;12.60;99.90
30150;DHT22;16962;48.646;9.026;2022-11-15T11:06:59;12.80;99.90
30150;DHT22;16962;48.646;9.026;2022-11-15T11:10:02;12.80;99.90
30150;DHT22;16962;48.646;9.026;2022-11-15T11:13:14;12.80;99.90
30150;DHT22;16962;48.646;9.026;2022-11-15T11:16:33;12.80;99.90
30150;DHT22;16962;48.646;9.026;2022-11-15T11:25:40;13.00;99.90
30150;DHT22;16962;48.646;9.026;2022-11-15T11:34:50;13.10;99.90
30150;DHT22;16962;48.646;9.026;2022-11-15T11:47:24;13.10;99.90
30150;DHT22;16962;48.646;9.026;2022-11-15T11:50:25;13.20;99.90
30150;DHT22;16962;48.646;9.026;2022-11-15T11:53:29;13.30;99.90
30150;DHT22;16962;48.646;9.026;2022-11-15T11:56:31;13.30;99.90
30150;DHT22;16962;48.646;9.026;2022-11-15T12:00:12;13.30;99.90
30150;DHT22;16962;48.646;9.026;2022-11-15T12:06:02;13.30;99.90
30150;DHT22;16962;48.646;9.026;2022-11-15T12:09:01;13.20;99.90
30150;DHT22;16962;48.646;9.026;2022-11-15T12:12:04;13.20;99.90
30150;DHT22;16962;48.646;9.026;2022-11-15T12:17:57;13.10;99.90
30150;DHT22;16962;48.646;9.026;2022-11-15T12:20:56;13.00;99.90
30150;DHT22;16962;48.646;9.026;2022-11-15T12:23:50;13.00;99.90
30150;DHT22;16962;48.646;9.026;2022-11-15T12:26:49;13.00;99.90
30150;DHT22;16962;48.646;9.026;2022-11-15T12:29:51;12.90;99.90
30150;DHT22;16962;48.646;9.026;2022-11-15T12:32:57;12.90;99.90
30150;DHT22;16962;48.646;9.026;2022-11-15T12:35:59;12.90;99.90
30150;DHT22;16962;48.646;9.026;2022-11-15T12:38:59;12.90;99.90
30150;DHT22;16962;48.646;9.026;2022-11-15T12:47:36;13.00;99.90
30150;DHT22;16962;48.646;9.026;2022-11-15T12:53:41;13.20;99.90
30150;DHT22;16962;48.646;9.026;2022-11-15T12:56:29;13.20;99.90
30150;DHT22;16962;48.646;9.026;2022-11-15T13:02:43;13.10;99.90
30150;DHT22;16962;48.646;9.026;2022-11-15T13:08:41;13.10;99.90
30150;DHT22;16962;48.646;9.026;2022-11-15T13:11:45;13.00;99.90
30150;DHT22;16962;48.646;9.026;2022-11-15T13:14:46;13.00;99.90
30150;DHT22;16962;48.646;9.026;2022-11-15T13:20:34;12.90;99.90
30150;DHT22;16962;48.646;9.026;2022-11-15T13:23:21;12.90;99.90
30150;DHT22;16962;48.646;9.026;2022-11-15T13:26:15;12.80;99.90
30150;DHT22;16962;48.646;9.026;2022-11-15T13:29:18;12.80;99.90
30150;DHT22;16962;48.646;9.026;2022-11-15T13:32:14;12.70;1.00
30150;DHT22;16962;48.646;9.026;2022-11-15T13:35:07;12.70;99.90
30150;DHT22;16962;48.646;9.026;2022-11-15T13:37:55;12.80;99.90
30150;DHT22;16962;48.646;9.026;2022-11-15T13:40:43;12.80;99.90
30150;DHT22;16962;48.646;9.026;2022-11-15T13:43:37;12.70;1.00
30150;DHT22;16962;48.646;9.026;2022-11-15T13:46:31;12.50;1.00
30150;DHT22;16962;48.646;9.026;2022-11-15T13:49:29;12.30;1.00
30150;DHT22;16962;48.646;9.026;2022-11-15T13:52:17;12.10;1.00
30150;DHT22;16962;48.646;9.026;2022-11-15T13:55:16;12.00;62.80
30150;DHT22;16962;48.646;9.026;2022-11-15T13:58:05;12.00;99.90
30150;DHT22;16962;48.646;9.026;2022-11-15T14:01:05;11.90;99.90
30150;DHT22;16962;48.646;9.026;2022-11-15T14:04:25;11.90;99.90
30150;DHT22;16962;48.646;9.026;2022-11-15T14:08:03;12.00;1.00
30150;DHT22;16962;48.646;9.026;2022-11-15T14:11:09;12.20;1.00
30150;DHT22;16962;48.646;9.026;2022-11-15T14:17:00;12.60;1.00
30150;DHT22;16962;48.646;9.026;2022-11-15T14:19:55;12.80;99.90
30150;DHT22;16962;48.646;9.026;2022-11-15T14:22:52;12.90;99.90
30150;DHT22;16962;48.646;9.026;2022-11-15T14:26:00;13.00;99.90
30150;DHT22;16962;48.646;9.026;2022-11-15T14:28:47;13.10;99.90
30150;DHT22;16962;48.646;9.026;2022-11-15T14:31:36;13.10;99.90
30150;DHT22;16962;48.646;9.026;2022-11-15T14:34:32;13.10;99.90
30150;DHT22;16962;48.646;9.026;2022-11-15T14:37:23;12.90;99.90
30150;DHT22;16962;48.646;9.026;2022-11-15T14:40:16;12.80;99.90
30150;DHT22;16962;48.646;9.026;2022-11-15T14:43:07;12.60;99.90
30150;DHT22;16962;48.646;9.026;2022-11-15T14:45:55;12.40;99.90
30150;DHT22;16962;48.646;9.026;2022-11-15T14:48:45;12.20;99.90
30150;DHT22;16962;48.646;9.026;2022-11-15T14:51:32;12.10;99.90
30150;DHT22;16962;48.646;9.026;2022-11-15T14:54:22;12.00;99.90
30150;DHT22;16962;48.646;9.026;2022-11-15T14:57:12;11.90;1.00
30150;DHT22;16962;48.646;9.026;2022-11-15T15:00:01;11.80;1.00
30150;DHT22;16962;48.646;9.026;2022-11-15T15:02:54;11.70;1.00
30150;DHT22;16962;48.646;9.026;2022-11-15T15:05:47;11.60;99.90
30150;DHT22;16962;48.646;9.026;2022-11-15T15:08:38;11.50;99.90
30150;DHT22;16962;48.646;9.026;2022-11-15T15:11:29;11.40;99.90
30150;DHT22;16962;48.646;9.026;2022-11-15T15:14:20;11.40;99.90
30150;DHT22;16962;48.646;9.026;2022-11-15T15:17:35;11.30;99.90
30150;DHT22;16962;48.646;9.026;2022-11-15T15:20:33;11.30;99.90
30150;DHT22;16962;48.646;9.026;2022-11-15T15:23:22;11.20;1.00
30150;DHT22;16962;48.646;9.026;2022-11-15T15:26:11;11.20;1.00
30150;DHT22;16962;48.646;9.026;2022-11-15T15:29:09;11.20;1.00
30150;DHT22;16962;48.646;9.026;2022-11-15T15:31:57;11.10;1.00
30150;DHT22;16962;48.646;9.026;2022-11-15T15:34:47;11.00;1.00
30150;DHT22;16962;48.646;9.026;2022-11-15T15:37:34;11.00;54.40
30150;DHT22;16962;48.646;9.026;2022-11-15T15:40:23;10.90;99.90
30150;DHT22;16962;48.646;9.026;2022-11-15T15:43:33;10.80;99.90
30150;DHT22;16962;48.646;9.026;2022-11-15T15:46:24;10.80;1.00
30150;DHT22;16962;48.646;9.026;2022-11-15T15:49:11;10.70;1.00
30150;DHT22;16962;48.646;9.026;2022-11-15T15:52:04;10.70;95.10
30150;DHT22;16962;48.646;9.026;2022-11-15T15:54:58;10.70;99.90
30150;DHT22;16962;48.646;9.026;2022-11-15T15:57:47;10.70;99.90
30150;DHT22;16962;48.646;9.026;2022-11-15T16:00:36;10.60;1.00
30150;DHT22;16962;48.646;9.026;2022-11-15T16:03:30;10.60;74.40
30150;DHT22;16962;48.646;9.026;2022-11-15T16:06:37;10.60;99.90
30150;DHT22;16962;48.646;9.026;2022-11-15T16:09:26;10.60;99.90
30150;DHT22;16962;48.646;9.026;2022-11-15T16:12:35;10.60;99.90
30150;DHT22;16962;48.646;9.026;2022-11-15T16:15:24;10.50;99.90
30150;DHT22;16962;48.646;9.026;2022-11-15T16:18:16;10.50;99.90
30150;DHT22;16962;48.646;9.026;2022-11-15T16:21:04;10.50;99.90
30150;DHT22;16962;48.646;9.026;2022-11-15T16:23:51;10.50;99.90
30150;DHT22;16962;48.646;9.026;2022-11-15T16:26:38;10.40;99.90
30150;DHT22;16962;48.646;9.026;2022-11-15T16:29:26;10.40;99.90
30150;DHT22;16962;48.646;9.026;2022-11-15T16:32:13;10.40;99.90
30150;DHT22;16962;48.646;9.026;2022-11-15T16:35:01;10.40;1.00
30150;DHT22;16962;48.646;9.026;2022-11-15T16:37:48;10.40;1.00
30150;DHT22;16962;48.646;9.026;2022-11-15T16:40:37;10.40;99.90
30150;DHT22;16962;48.646;9.026;2022-11-15T16:43:24;10.40;99.90
30150;DHT22;16962;48.646;9.026;2022-11-15T16:46:19;10.30;99.90
30150;DHT22;16962;48.646;9.026;2022-11-15T16:49:14;10.30;99.90
30150;DHT22;16962;48.646;9.026;2022-11-15T16:52:04;10.20;99.90
30150;DHT22;16962;48.646;9.026;2022-11-15T16:54:54;10.20;99.90
30150;DHT22;16962;48.646;9.026;2022-11-15T16:57:42;10.20;1.00
30150;DHT22;16962;48.646;9.026;2022-11-15T17:00:30;10.20;1.00
30150;DHT22;16962;48.646;9.026;2022-11-15T17:03:18;10.20;1.00
30150;DHT22;16962;48.646;9.026;2022-11-15T17:06:06;10.10;1.00
30150;DHT22;16962;48.646;9.026;2022-11-15T17:08:55;10.10;1.00
30150;DHT22;16962;48.646;9.026;2022-11-15T17:11:43;10.10;1.00
30150;DHT22;16962;48.646;9.026;2022-11-15T17:14:38;10.10;46.20
30150;DHT22;16962;48.646;9.026;2022-11-15T17:17:25;10.10;93.70
30150;DHT22;16962;48.646;9.026;2022-11-15T17:20:16;10.10;99.90
30150;DHT22;16962;48.646;9.026;2022-11-15T17:23:03;10.10;99.90
30150;DHT22;16962;48.646;9.026;2022-11-15T17:26:00;10.00;99.90
30150;DHT22;16962;48.646;9.026;2022-11-15T17:29:13;10.00;99.90
30150;DHT22;16962;48.646;9.026;2022-11-15T17:32:02;10.00;99.90
30150;DHT22;16962;48.646;9.026;2022-11-15T17:34:51;10.00;12.00
30150;DHT22;16962;48.646;9.026;2022-11-15T17:37:40;10.00;1.00
30150;DHT22;16962;48.646;9.026;2022-11-15T17:40:28;10.00;27.60
30150;DHT22;16962;48.646;9.026;2022-11-15T17:43:17;10.00;99.90
30150;DHT22;16962;48.646;9.026;2022-11-15T17:46:07;9.90;99.90
30150;DHT22;16962;48.646;9.026;2022-11-15T17:48:56;9.90;99.90
30150;DHT22;16962;48.646;9.026;2022-11-15T17:51:44;9.90;99.90
30150;DHT22;16962;48.646;9.026;2022-11-15T17:54:36;10.00;99.90
30150;DHT22;16962;48.646;9.026;2022-11-15T17:57:23;10.00;99.90
30150;DHT22;16962;48.646;9.026;2022-11-15T18:00:11;10.00;99.90
30150;DHT22;16962;48.646;9.026;2022-11-15T18:02:59;10.00;99.90
30150;DHT22;16962;48.646;9.026;2022-11-15T18:05:46;10.00;99.90
30150;DHT22;16962;48.646;9.026;2022-11-15T18:08:39;10.00;99.90
30150;DHT22;16962;48.646;9.026;2022-11-15T18:11:29;10.00;99.90
30150;DHT22;16962;48.646;9.026;2022-11-15T18:14:17;10.00;99.90
30150;DHT22;16962;48.646;9.026;2022-11-15T18:17:05;10.00;99.90
30150;DHT22;16962;48.646;9.026;2022-11-15T18:19:53;10.10;99.90
30150;DHT22;16962;48.646;9.026;2022-11-15T18:22:40;10.10;99.90
30150;DHT22;16962;48.646;9.026;2022-11-15T18:25:32;10.10;99.90
30150;DHT22;16962;48.646;9.026;2022-11-15T18:28:20;10.00;99.90
30150;DHT22;16962;48.646;9.026;2022-11-15T18:34:10;10.10;1.00
30150;DHT22;16962;48.646;9.026;2022-11-15T18:36:59;10.10;26.80
30150;DHT22;16962;48.646;9.026;2022-11-15T18:39:47;10.10;35.50
30150;DHT22;16962;48.646;9.026;2022-11-15T18:42:40;10.20;1.00
30150;DHT22;16962;48.646;9.026;2022-11-15T18:45:33;10.30;1.00
30150;DHT22;16962;48.646;9.026;2022-11-15T18:48:20;10.30;20.30
30150;DHT22;16962;48.646;9.026;2022-11-15T18:51:11;10.30;94.40
30150;DHT22;16962;48.646;9.026;2022-11-15T18:54:00;10.30;99.90
30150;DHT22;16962;48.646;9.026;2022-11-15T18:56:53;10.20;99.90
30150;DHT22;16962;48.646;9.026;2022-11-15T18:59:40;10.20;99.90
30150;DHT22;16962;48.646;9.026;2022-11-15T19:02:28;10.10;99.90
30150;DHT22;16962;48.646;9.026;2022-11-15T19:05:16;10.10;99.90
30150;DHT22;16962;48.646;9.026;2022-11-15T19:08:07;10.00;1.00
30150;DHT22;16962;48.646;9.026;2022-11-15T19:11:00;10.00;99.90
30150;DHT22;16962;48.646;9.026;2022-11-15T19:13:53;10.00;99.90
30150;DHT22;16962;48.646;9.026;2022-11-15T19:16:47;9.90;99.90
30150;DHT22;16962;48.646;9.026;2022-11-15T19:19:39;9.90;1.00
30150;DHT22;16962;48.646;9.026;2022-11-15T19:22:26;9.90;99.90
30150;DHT22;16962;48.646;9.026;2022-11-15T19:25:14;9.90;99.90
30150;DHT22;16962;48.646;9.026;2022-11-15T19:28:01;9.80;1.00
30150;DHT22;16962;48.646;9.026;2022-11-15T19:30:49;9.80;97.70
30150;DHT22;16962;48.646;9.026;2022-11-15T19:33:38;9.80;99.90
30150;DHT22;16962;48.646;9.026;2022-11-15T19:36:30;9.70;99.90
30150;DHT22;16962;48.646;9.026;2022-11-15T19:39:23;9.80;99.90
30150;DHT22;16962;48.646;9.026;2022-11-15T19:42:10;9.70;99.90
30150;DHT22;16962;48.646;9.026;2022-11-15T19:45:00;9.70;99.90
30150;DHT22;16962;48.646;9.026;2022-11-15T19:47:48;9.70;99.90
30150;DHT22;16962;48.646;9.026;2022-11-15T19:50:36;9.70;99.90
30150;DHT22;16962;48.646;9.026;2022-11-15T19:53:23;9.70;22.10
30150;DHT22;16962;48.646;9.026;2022-11-15T19:56:17;9.70;33.70
30150;DHT22;16962;48.646;9.026;2022-11-15T19:59:05;9.60;99.90